Terminal Aerodrome Forecast
Issued by NWS Tuscon, AZ

Home | Current Version | Previous Version | Text Only | Print | Product List | Glossary On
Versions: 1 2 3 4 5 6 7 8 9 10 11 12 13 14 15 16
000
FTUS45 KTWC 271732
TAFDUG
TAF
KDUG 271732Z 2718/2818 21005KT P6SM FEW100 BKN150
     FM272100 35009G15KT P6SM VCTS SCT070CB BKN120
      TEMPO 2721/2724 5SM -TSRA BKN070CB
     FM280200 20006KT P6SM SCT070 BKN120
     FM280800 35005KT P6SM SCT120=

USA.gov is the U.S. government's official web portal to all federal, state and local government web resources and services.